sensor_id;sensor_type;location;lat;lon;timestamp;temperature;humidity
18147;DHT22;9199;48.832;9.182;2023-04-25T00:00:40;9.60;99.90
18147;DHT22;9199;48.832;9.182;2023-04-25T00:03:07;9.60;99.90
18147;DHT22;9199;48.832;9.182;2023-04-25T00:05:34;9.50;99.90
18147;DHT22;9199;48.832;9.182;2023-04-25T00:08:04;9.50;99.90
18147;DHT22;9199;48.832;9.182;2023-04-25T00:10:31;9.50;99.90
18147;DHT22;9199;48.832;9.182;2023-04-25T00:12:58;9.50;99.90
18147;DHT22;9199;48.832;9.182;2023-04-25T00:15:27;9.50;99.90
18147;DHT22;9199;48.832;9.182;2023-04-25T00:17:56;9.50;99.90
18147;DHT22;9199;48.832;9.182;2023-04-25T00:20:22;9.50;99.90
18147;DHT22;9199;48.832;9.182;2023-04-25T00:22:50;9.40;99.90
18147;DHT22;9199;48.832;9.182;2023-04-25T00:25:19;9.40;99.90
18147;DHT22;9199;48.832;9.182;2023-04-25T00:27:46;9.40;99.90
18147;DHT22;9199;48.832;9.182;2023-04-25T00:30:13;9.40;99.90
18147;DHT22;9199;48.832;9.182;2023-04-25T00:32:40;9.40;99.90
18147;DHT22;9199;48.832;9.182;2023-04-25T00:35:08;9.30;99.90
18147;DHT22;9199;48.832;9.182;2023-04-25T00:37:35;9.40;99.90
18147;DHT22;9199;48.832;9.182;2023-04-25T00:40:01;9.40;99.90
18147;DHT22;9199;48.832;9.182;2023-04-25T00:42:32;9.40;99.90
18147;DHT22;9199;48.832;9.182;2023-04-25T00:45:00;9.40;99.90
18147;DHT22;9199;48.832;9.182;2023-04-25T00:47:28;9.40;99.90
18147;DHT22;9199;48.832;9.182;2023-04-25T00:49:55;9.40;99.90
18147;DHT22;9199;48.832;9.182;2023-04-25T00:52:21;9.40;99.90
18147;DHT22;9199;48.832;9.182;2023-04-25T00:54:48;9.40;99.90
18147;DHT22;9199;48.832;9.182;2023-04-25T00:57:15;9.40;99.90
18147;DHT22;9199;48.832;9.182;2023-04-25T00:59:45;9.40;99.90
18147;DHT22;9199;48.832;9.182;2023-04-25T01:02:12;9.40;99.90
18147;DHT22;9199;48.832;9.182;2023-04-25T01:04:39;9.40;99.90
18147;DHT22;9199;48.832;9.182;2023-04-25T01:07:06;9.40;99.90
18147;DHT22;9199;48.832;9.182;2023-04-25T01:09:33;9.40;99.90
18147;DHT22;9199;48.832;9.182;2023-04-25T01:12:00;9.40;99.90
18147;DHT22;9199;48.832;9.182;2023-04-25T01:14:28;9.40;99.90
18147;DHT22;9199;48.832;9.182;2023-04-25T01:16:57;9.40;99.90
18147;DHT22;9199;48.832;9.182;2023-04-25T01:19:23;9.50;99.90
18147;DHT22;9199;48.832;9.182;2023-04-25T01:21:52;9.50;99.90
18147;DHT22;9199;48.832;9.182;2023-04-25T01:24:18;9.50;99.90
18147;DHT22;9199;48.832;9.182;2023-04-25T01:26:45;9.40;99.90
18147;DHT22;9199;48.832;9.182;2023-04-25T01:29:15;9.40;99.90
18147;DHT22;9199;48.832;9.182;2023-04-25T01:31:42;9.40;99.90
18147;DHT22;9199;48.832;9.182;2023-04-25T01:34:12;9.30;99.90
18147;DHT22;9199;48.832;9.182;2023-04-25T01:36:39;9.30;99.90
18147;DHT22;9199;48.832;9.182;2023-04-25T01:39:07;9.30;99.90
18147;DHT22;9199;48.832;9.182;2023-04-25T01:41:34;9.30;99.90
18147;DHT22;9199;48.832;9.182;2023-04-25T01:44:01;9.30;99.90
18147;DHT22;9199;48.832;9.182;2023-04-25T01:46:28;9.30;99.90
18147;DHT22;9199;48.832;9.182;2023-04-25T01:48:54;9.20;99.90
18147;DHT22;9199;48.832;9.182;2023-04-25T01:51:21;9.20;99.90
18147;DHT22;9199;48.832;9.182;2023-04-25T01:53:48;9.20;99.90
18147;DHT22;9199;48.832;9.182;2023-04-25T01:56:17;9.30;99.90
18147;DHT22;9199;48.832;9.182;2023-04-25T01:58:45;9.30;99.90
18147;DHT22;9199;48.832;9.182;2023-04-25T02:01:11;9.30;99.90
18147;DHT22;9199;48.832;9.182;2023-04-25T02:03:38;9.30;99.90
18147;DHT22;9199;48.832;9.182;2023-04-25T02:06:05;9.30;99.90
18147;DHT22;9199;48.832;9.182;2023-04-25T02:08:32;9.30;99.90
18147;DHT22;9199;48.832;9.182;2023-04-25T02:10:58;9.30;99.90
18147;DHT22;9199;48.832;9.182;2023-04-25T02:13:27;9.30;99.90
18147;DHT22;9199;48.832;9.182;2023-04-25T02:15:53;9.30;99.90
18147;DHT22;9199;48.832;9.182;2023-04-25T02:18:20;9.30;99.90
18147;DHT22;9199;48.832;9.182;2023-04-25T02:20:47;9.30;99.90
18147;DHT22;9199;48.832;9.182;2023-04-25T02:23:13;9.30;99.90
18147;DHT22;9199;48.832;9.182;2023-04-25T02:25:41;9.20;99.90
18147;DHT22;9199;48.832;9.182;2023-04-25T02:28:07;9.20;99.90
18147;DHT22;9199;48.832;9.182;2023-04-25T02:30:36;9.10;99.90
18147;DHT22;9199;48.832;9.182;2023-04-25T02:33:02;9.10;99.90
18147;DHT22;9199;48.832;9.182;2023-04-25T02:35:29;9.10;99.90
18147;DHT22;9199;48.832;9.182;2023-04-25T02:37:56;9.00;99.90
18147;DHT22;9199;48.832;9.182;2023-04-25T02:40:23;9.00;99.90
18147;DHT22;9199;48.832;9.182;2023-04-25T02:42:49;9.00;99.90
18147;DHT22;9199;48.832;9.182;2023-04-25T02:45:17;9.00;99.90
18147;DHT22;9199;48.832;9.182;2023-04-25T02:47:45;9.00;99.90
18147;DHT22;9199;48.832;9.182;2023-04-25T02:50:11;9.00;99.90
18147;DHT22;9199;48.832;9.182;2023-04-25T02:52:38;9.00;99.90
18147;DHT22;9199;48.832;9.182;2023-04-25T02:55:05;9.00;99.90
18147;DHT22;9199;48.832;9.182;2023-04-25T02:57:32;9.00;99.90
18147;DHT22;9199;48.832;9.182;2023-04-25T02:59:59;9.00;99.90
18147;DHT22;9199;48.832;9.182;2023-04-25T03:02:25;9.00;99.90
18147;DHT22;9199;48.832;9.182;2023-04-25T03:04:53;9.00;99.90
18147;DHT22;9199;48.832;9.182;2023-04-25T03:07:20;8.90;99.90
18147;DHT22;9199;48.832;9.182;2023-04-25T03:09:47;9.00;99.90
18147;DHT22;9199;48.832;9.182;2023-04-25T03:12:13;9.00;99.90
18147;DHT22;9199;48.832;9.182;2023-04-25T03:14:40;9.00;99.90
18147;DHT22;9199;48.832;9.182;2023-04-25T03:17:07;9.00;99.90
18147;DHT22;9199;48.832;9.182;2023-04-25T03:19:34;9.00;99.90
18147;DHT22;9199;48.832;9.182;2023-04-25T03:22:02;9.00;99.90
18147;DHT22;9199;48.832;9.182;2023-04-25T03:24:28;9.00;99.90
18147;DHT22;9199;48.832;9.182;2023-04-25T03:26:55;9.00;99.90
18147;DHT22;9199;48.832;9.182;2023-04-25T03:29:22;9.00;99.90
18147;DHT22;9199;48.832;9.182;2023-04-25T03:31:51;9.00;99.90
18147;DHT22;9199;48.832;9.182;2023-04-25T03:34:17;8.90;99.90
18147;DHT22;9199;48.832;9.182;2023-04-25T03:36:45;8.90;99.90
18147;DHT22;9199;48.832;9.182;2023-04-25T03:39:13;8.90;99.90
18147;DHT22;9199;48.832;9.182;2023-04-25T03:41:39;8.90;99.90
18147;DHT22;9199;48.832;9.182;2023-04-25T03:44:06;8.90;99.90
18147;DHT22;9199;48.832;9.182;2023-04-25T03:46:33;8.80;99.90
18147;DHT22;9199;48.832;9.182;2023-04-25T03:48:59;8.80;99.90
18147;DHT22;9199;48.832;9.182;2023-04-25T03:51:26;8.80;99.90
18147;DHT22;9199;48.832;9.182;2023-04-25T03:53:53;8.90;99.90
18147;DHT22;9199;48.832;9.182;2023-04-25T03:56:21;8.80;99.90
18147;DHT22;9199;48.832;9.182;2023-04-25T03:58:47;8.90;99.90
18147;DHT22;9199;48.832;9.182;2023-04-25T04:01:14;8.90;99.90
18147;DHT22;9199;48.832;9.182;2023-04-25T04:03:41;8.90;99.90
18147;DHT22;9199;48.832;9.182;2023-04-25T04:06:08;8.80;99.90
18147;DHT22;9199;48.832;9.182;2023-04-25T04:08:36;8.80;99.90
18147;DHT22;9199;48.832;9.182;2023-04-25T04:11:03;8.80;99.90
18147;DHT22;9199;48.832;9.182;2023-04-25T04:13:31;8.80;99.90
18147;DHT22;9199;48.832;9.182;2023-04-25T04:15:57;8.80;99.90
18147;DHT22;9199;48.832;9.182;2023-04-25T04:18:24;8.70;99.90
18147;DHT22;9199;48.832;9.182;2023-04-25T04:20:51;8.70;99.90
18147;DHT22;9199;48.832;9.182;2023-04-25T04:23:18;8.70;99.90
18147;DHT22;9199;48.832;9.182;2023-04-25T04:25:45;8.70;99.90
18147;DHT22;9199;48.832;9.182;2023-04-25T04:28:12;8.70;99.90
18147;DHT22;9199;48.832;9.182;2023-04-25T04:30:40;8.70;99.90
18147;DHT22;9199;48.832;9.182;2023-04-25T04:33:07;8.70;99.90
18147;DHT22;9199;48.832;9.182;2023-04-25T04:35:34;8.70;99.90
18147;DHT22;9199;48.832;9.182;2023-04-25T04:38:01;8.70;99.90
18147;DHT22;9199;48.832;9.182;2023-04-25T04:40:28;8.80;99.90
18147;DHT22;9199;48.832;9.182;2023-04-25T04:42:55;8.80;99.90
18147;DHT22;9199;48.832;9.182;2023-04-25T04:45:23;8.90;99.90
18147;DHT22;9199;48.832;9.182;2023-04-25T04:47:51;8.90;99.90
18147;DHT22;9199;48.832;9.182;2023-04-25T04:50:18;8.90;99.90
18147;DHT22;9199;48.832;9.182;2023-04-25T04:52:45;8.90;99.90
18147;DHT22;9199;48.832;9.182;2023-04-25T04:55:12;9.00;99.90
18147;DHT22;9199;48.832;9.182;2023-04-25T04:57:38;9.00;99.90
18147;DHT22;9199;48.832;9.182;2023-04-25T05:00:06;9.00;99.90
18147;DHT22;9199;48.832;9.182;2023-04-25T05:02:36;9.00;99.90
18147;DHT22;9199;48.832;9.182;2023-04-25T05:05:05;9.20;99.90
18147;DHT22;9199;48.832;9.182;2023-04-25T05:07:32;9.70;99.90
18147;DHT22;9199;48.832;9.182;2023-04-25T05:09:59;10.30;99.90
18147;DHT22;9199;48.832;9.182;2023-04-25T05:12:25;10.60;99.90
18147;DHT22;9199;48.832;9.182;2023-04-25T05:14:52;10.60;99.90
18147;DHT22;9199;48.832;9.182;2023-04-25T05:17:19;10.40;99.90
18147;DHT22;9199;48.832;9.182;2023-04-25T05:19:45;10.20;99.90
18147;DHT22;9199;48.832;9.182;2023-04-25T05:22:13;10.00;99.90
18147;DHT22;9199;48.832;9.182;2023-04-25T05:24:40;10.00;99.90
18147;DHT22;9199;48.832;9.182;2023-04-25T05:27:07;9.90;99.90
18147;DHT22;9199;48.832;9.182;2023-04-25T05:29:33;9.80;99.90
18147;DHT22;9199;48.832;9.182;2023-04-25T05:32:00;9.80;99.90
18147;DHT22;9199;48.832;9.182;2023-04-25T05:34:27;9.80;99.90
18147;DHT22;9199;48.832;9.182;2023-04-25T05:36:54;9.70;99.90
18147;DHT22;9199;48.832;9.182;2023-04-25T05:39:22;9.50;99.90
18147;DHT22;9199;48.832;9.182;2023-04-25T05:41:49;9.30;99.90
18147;DHT22;9199;48.832;9.182;2023-04-25T05:44:15;9.20;99.90
18147;DHT22;9199;48.832;9.182;2023-04-25T05:46:42;9.10;99.90
18147;DHT22;9199;48.832;9.182;2023-04-25T05:49:09;9.00;99.90
18147;DHT22;9199;48.832;9.182;2023-04-25T05:51:36;8.90;99.90
18147;DHT22;9199;48.832;9.182;2023-04-25T05:54:03;8.80;99.90
18147;DHT22;9199;48.832;9.182;2023-04-25T05:56:31;8.80;99.90
18147;DHT22;9199;48.832;9.182;2023-04-25T05:58:58;8.80;99.90
18147;DHT22;9199;48.832;9.182;2023-04-25T06:01:25;8.80;99.90
18147;DHT22;9199;48.832;9.182;2023-04-25T06:03:51;8.90;99.90
18147;DHT22;9199;48.832;9.182;2023-04-25T06:06:18;8.90;99.90
18147;DHT22;9199;48.832;9.182;2023-04-25T06:08:45;8.90;99.90
18147;DHT22;9199;48.832;9.182;2023-04-25T06:11:12;8.90;99.90
18147;DHT22;9199;48.832;9.182;2023-04-25T06:13:40;9.00;99.90
18147;DHT22;9199;48.832;9.182;2023-04-25T06:16:07;9.00;99.90
18147;DHT22;9199;48.832;9.182;2023-04-25T06:18:33;9.10;99.90
18147;DHT22;9199;48.832;9.182;2023-04-25T06:21:00;9.10;99.90
18147;DHT22;9199;48.832;9.182;2023-04-25T06:23:27;9.20;99.90
18147;DHT22;9199;48.832;9.182;2023-04-25T06:25:54;9.20;99.90
18147;DHT22;9199;48.832;9.182;2023-04-25T06:28:21;9.40;99.90
18147;DHT22;9199;48.832;9.182;2023-04-25T06:30:51;9.60;99.90
18147;DHT22;9199;48.832;9.182;2023-04-25T06:33:17;9.70;99.90
18147;DHT22;9199;48.832;9.182;2023-04-25T06:35:45;9.90;99.90
18147;DHT22;9199;48.832;9.182;2023-04-25T06:38:12;10.10;99.90
18147;DHT22;9199;48.832;9.182;2023-04-25T06:40:39;10.30;99.90
18147;DHT22;9199;48.832;9.182;2023-04-25T06:43:05;10.40;99.90
18147;DHT22;9199;48.832;9.182;2023-04-25T06:45:32;10.50;99.90
18147;DHT22;9199;48.832;9.182;2023-04-25T06:48:00;10.60;99.90
18147;DHT22;9199;48.832;9.182;2023-04-25T06:50:27;10.70;99.90
18147;DHT22;9199;48.832;9.182;2023-04-25T06:52:53;10.70;99.90
18147;DHT22;9199;48.832;9.182;2023-04-25T06:55:20;10.60;99.90
18147;DHT22;9199;48.832;9.182;2023-04-25T06:57:47;10.50;99.90
18147;DHT22;9199;48.832;9.182;2023-04-25T07:00:14;10.40;99.90
18147;DHT22;9199;48.832;9.182;2023-04-25T07:02:41;10.40;99.90
18147;DHT22;9199;48.832;9.182;2023-04-25T07:05:11;10.40;99.90
18147;DHT22;9199;48.832;9.182;2023-04-25T07:07:38;10.40;99.90
18147;DHT22;9199;48.832;9.182;2023-04-25T07:10:05;10.30;99.90
18147;DHT22;9199;48.832;9.182;2023-04-25T07:12:32;10.10;99.90
18147;DHT22;9199;48.832;9.182;2023-04-25T07:14:58;10.20;99.90
18147;DHT22;9199;48.832;9.182;2023-04-25T07:17:31;10.30;99.90
18147;DHT22;9199;48.832;9.182;2023-04-25T07:19:58;10.30;99.90
18147;DHT22;9199;48.832;9.182;2023-04-25T07:22:26;10.40;99.90
18147;DHT22;9199;48.832;9.182;2023-04-25T07:24:53;10.30;99.90
18147;DHT22;9199;48.832;9.182;2023-04-25T07:27:19;10.30;99.90
18147;DHT22;9199;48.832;9.182;2023-04-25T07:29:46;10.30;99.90
18147;DHT22;9199;48.832;9.182;2023-04-25T07:32:13;10.30;99.90
18147;DHT22;9199;48.832;9.182;2023-04-25T07:34:40;10.20;99.90
18147;DHT22;9199;48.832;9.182;2023-04-25T07:37:07;10.10;99.90
18147;DHT22;9199;48.832;9.182;2023-04-25T07:39:35;10.20;99.90
18147;DHT22;9199;48.832;9.182;2023-04-25T07:42:02;10.20;99.90
18147;DHT22;9199;48.832;9.182;2023-04-25T07:44:29;10.10;99.90
18147;DHT22;9199;48.832;9.182;2023-04-25T07:46:56;10.00;99.90
18147;DHT22;9199;48.832;9.182;2023-04-25T07:49:23;9.90;99.90
18147;DHT22;9199;48.832;9.182;2023-04-25T07:51:50;9.90;99.90
18147;DHT22;9199;48.832;9.182;2023-04-25T07:54:17;9.90;99.90
18147;DHT22;9199;48.832;9.182;2023-04-25T07:56:45;9.80;99.90
18147;DHT22;9199;48.832;9.182;2023-04-25T07:59:11;9.80;99.90
18147;DHT22;9199;48.832;9.182;2023-04-25T08:01:38;9.80;99.90
18147;DHT22;9199;48.832;9.182;2023-04-25T08:04:05;9.90;99.90
18147;DHT22;9199;48.832;9.182;2023-04-25T08:06:32;10.00;99.90
18147;DHT22;9199;48.832;9.182;2023-04-25T08:08:59;10.00;99.90
18147;DHT22;9199;48.832;9.182;2023-04-25T08:11:25;10.10;99.90
18147;DHT22;9199;48.832;9.182;2023-04-25T08:13:54;10.20;99.90
18147;DHT22;9199;48.832;9.182;2023-04-25T08:16:20;10.30;99.90
18147;DHT22;9199;48.832;9.182;2023-04-25T08:18:47;10.40;99.90
18147;DHT22;9199;48.832;9.182;2023-04-25T08:21:15;10.40;99.90
18147;DHT22;9199;48.832;9.182;2023-04-25T08:23:41;10.40;99.90
18147;DHT22;9199;48.832;9.182;2023-04-25T08:26:08;10.20;99.90
18147;DHT22;9199;48.832;9.182;2023-04-25T08:28:35;10.10;99.90
18147;DHT22;9199;48.832;9.182;2023-04-25T08:31:03;10.00;99.90
18147;DHT22;9199;48.832;9.182;2023-04-25T08:33:30;9.90;99.90
18147;DHT22;9199;48.832;9.182;2023-04-25T08:35:58;9.80;99.90
18147;DHT22;9199;48.832;9.182;2023-04-25T08:38:24;9.80;99.90
18147;DHT22;9199;48.832;9.182;2023-04-25T08:40:51;9.80;99.90
18147;DHT22;9199;48.832;9.182;2023-04-25T08:43:19;9.80;99.90
18147;DHT22;9199;48.832;9.182;2023-04-25T08:45:47;9.70;99.90
18147;DHT22;9199;48.832;9.182;2023-04-25T08:48:16;9.60;99.90
18147;DHT22;9199;48.832;9.182;2023-04-25T08:50:48;9.30;99.90
18147;DHT22;9199;48.832;9.182;2023-04-25T08:53:18;9.20;99.90
18147;DHT22;9199;48.832;9.182;2023-04-25T08:55:48;9.30;99.90
18147;DHT22;9199;48.832;9.182;2023-04-25T08:58:18;9.40;99.90
18147;DHT22;9199;48.832;9.182;2023-04-25T09:00:46;9.40;99.90
18147;DHT22;9199;48.832;9.182;2023-04-25T09:03:14;9.50;99.90
18147;DHT22;9199;48.832;9.182;2023-04-25T09:05:42;9.40;99.90
18147;DHT22;9199;48.832;9.182;2023-04-25T09:08:08;9.30;99.90
18147;DHT22;9199;48.832;9.182;2023-04-25T09:10:36;9.30;99.90
18147;DHT22;9199;48.832;9.182;2023-04-25T09:13:05;9.20;99.90
18147;DHT22;9199;48.832;9.182;2023-04-25T09:15:32;9.20;99.90
18147;DHT22;9199;48.832;9.182;2023-04-25T09:17:59;9.00;99.90
18147;DHT22;9199;48.832;9.182;2023-04-25T09:20:28;9.00;99.90
18147;DHT22;9199;48.832;9.182;2023-04-25T09:23:01;8.90;99.90
18147;DHT22;9199;48.832;9.182;2023-04-25T09:25:34;8.90;99.90
18147;DHT22;9199;48.832;9.182;2023-04-25T09:28:04;8.90;99.90
18147;DHT22;9199;48.832;9.182;2023-04-25T09:30:33;8.80;99.90
18147;DHT22;9199;48.832;9.182;2023-04-25T09:33:04;8.70;99.90
18147;DHT22;9199;48.832;9.182;2023-04-25T09:35:37;8.60;99.90
18147;DHT22;9199;48.832;9.182;2023-04-25T09:38:08;8.50;99.90
18147;DHT22;9199;48.832;9.182;2023-04-25T09:40:41;8.40;99.90
18147;DHT22;9199;48.832;9.182;2023-04-25T09:43:18;8.30;99.90
18147;DHT22;9199;48.832;9.182;2023-04-25T09:45:47;8.20;99.90
18147;DHT22;9199;48.832;9.182;2023-04-25T09:48:17;8.10;99.90
18147;DHT22;9199;48.832;9.182;2023-04-25T09:51:04;8.00;99.90
18147;DHT22;9199;48.832;9.182;2023-04-25T09:53:31;8.00;99.90
18147;DHT22;9199;48.832;9.182;2023-04-25T09:55:59;7.90;99.90
18147;DHT22;9199;48.832;9.182;2023-04-25T09:58:29;7.90;99.90
18147;DHT22;9199;48.832;9.182;2023-04-25T10:00:58;7.90;99.90
18147;DHT22;9199;48.832;9.182;2023-04-25T10:03:26;8.00;99.90
18147;DHT22;9199;48.832;9.182;2023-04-25T10:05:55;8.00;99.90
18147;DHT22;9199;48.832;9.182;2023-04-25T10:08:25;8.00;99.90
18147;DHT22;9199;48.832;9.182;2023-04-25T10:10:53;7.90;99.90
18147;DHT22;9199;48.832;9.182;2023-04-25T10:13:20;7.90;99.90
18147;DHT22;9199;48.832;9.182;2023-04-25T10:15:47;7.80;99.90
18147;DHT22;9199;48.832;9.182;2023-04-25T10:18:19;7.80;99.90
18147;DHT22;9199;48.832;9.182;2023-04-25T10:20:46;7.70;99.90
18147;DHT22;9199;48.832;9.182;2023-04-25T10:23:14;7.70;99.90
18147;DHT22;9199;48.832;9.182;2023-04-25T10:25:42;7.60;99.90
18147;DHT22;9199;48.832;9.182;2023-04-25T10:28:09;7.60;99.90
18147;DHT22;9199;48.832;9.182;2023-04-25T10:30:36;7.50;99.90
18147;DHT22;9199;48.832;9.182;2023-04-25T10:33:16;7.50;99.90
18147;DHT22;9199;48.832;9.182;2023-04-25T10:35:45;7.50;99.90
18147;DHT22;9199;48.832;9.182;2023-04-25T10:38:15;7.50;99.90
18147;DHT22;9199;48.832;9.182;2023-04-25T10:40:41;7.60;99.90
18147;DHT22;9199;48.832;9.182;2023-04-25T10:43:36;7.60;99.90
18147;DHT22;9199;48.832;9.182;2023-04-25T10:46:13;7.50;99.90
18147;DHT22;9199;48.832;9.182;2023-04-25T10:48:46;7.50;99.90
18147;DHT22;9199;48.832;9.182;2023-04-25T10:51:17;7.50;99.90
18147;DHT22;9199;48.832;9.182;2023-04-25T10:53:45;7.50;99.90
18147;DHT22;9199;48.832;9.182;2023-04-25T10:56:17;7.50;99.90
18147;DHT22;9199;48.832;9.182;2023-04-25T10:58:44;7.50;99.90
18147;DHT22;9199;48.832;9.182;2023-04-25T11:01:12;7.50;99.90
18147;DHT22;9199;48.832;9.182;2023-04-25T11:03:41;7.50;99.90
18147;DHT22;9199;48.832;9.182;2023-04-25T11:06:15;7.50;99.90
18147;DHT22;9199;48.832;9.182;2023-04-25T11:08:49;7.50;99.90
18147;DHT22;9199;48.832;9.182;2023-04-25T11:11:16;7.60;99.90
18147;DHT22;9199;48.832;9.182;2023-04-25T11:13:43;7.70;99.90
18147;DHT22;9199;48.832;9.182;2023-04-25T11:16:10;7.80;99.90
18147;DHT22;9199;48.832;9.182;2023-04-25T11:18:37;7.90;99.90
18147;DHT22;9199;48.832;9.182;2023-04-25T11:21:04;8.00;99.90
18147;DHT22;9199;48.832;9.182;2023-04-25T11:23:31;8.10;99.90
18147;DHT22;9199;48.832;9.182;2023-04-25T11:25:59;8.30;99.90
18147;DHT22;9199;48.832;9.182;2023-04-25T11:28:26;8.50;99.90
18147;DHT22;9199;48.832;9.182;2023-04-25T11:30:53;8.70;99.90
18147;DHT22;9199;48.832;9.182;2023-04-25T11:33:23;8.60;99.90
18147;DHT22;9199;48.832;9.182;2023-04-25T11:35:50;8.60;99.90
18147;DHT22;9199;48.832;9.182;2023-04-25T11:38:17;8.60;99.90
18147;DHT22;9199;48.832;9.182;2023-04-25T11:40:44;8.60;99.90
18147;DHT22;9199;48.832;9.182;2023-04-25T11:43:17;8.60;99.90
18147;DHT22;9199;48.832;9.182;2023-04-25T11:45:46;8.70;99.90
18147;DHT22;9199;48.832;9.182;2023-04-25T11:48:13;8.70;99.90
18147;DHT22;9199;48.832;9.182;2023-04-25T11:50:40;8.80;99.90
18147;DHT22;9199;48.832;9.182;2023-04-25T11:53:07;8.80;99.90
18147;DHT22;9199;48.832;9.182;2023-04-25T11:55:34;8.90;99.90
18147;DHT22;9199;48.832;9.182;2023-04-25T11:58:01;9.00;99.90
18147;DHT22;9199;48.832;9.182;2023-04-25T12:00:31;9.00;99.90
18147;DHT22;9199;48.832;9.182;2023-04-25T12:02:57;9.00;99.90
18147;DHT22;9199;48.832;9.182;2023-04-25T12:05:26;9.10;99.90
18147;DHT22;9199;48.832;9.182;2023-04-25T12:07:53;9.10;99.90
18147;DHT22;9199;48.832;9.182;2023-04-25T12:10:20;9.00;99.90
18147;DHT22;9199;48.832;9.182;2023-04-25T12:12:48;9.00;99.90
18147;DHT22;9199;48.832;9.182;2023-04-25T12:15:16;8.80;99.90
18147;DHT22;9199;48.832;9.182;2023-04-25T12:17:47;8.60;99.90
18147;DHT22;9199;48.832;9.182;2023-04-25T12:20:15;8.60;99.90
18147;DHT22;9199;48.832;9.182;2023-04-25T12:22:44;8.60;99.90
18147;DHT22;9199;48.832;9.182;2023-04-25T12:25:11;8.60;99.90
18147;DHT22;9199;48.832;9.182;2023-04-25T12:27:39;8.50;99.90
18147;DHT22;9199;48.832;9.182;2023-04-25T12:30:08;8.60;99.90
18147;DHT22;9199;48.832;9.182;2023-04-25T12:32:36;8.60;99.90
18147;DHT22;9199;48.832;9.182;2023-04-25T12:35:05;8.70;99.90
18147;DHT22;9199;48.832;9.182;2023-04-25T12:37:32;8.80;99.90
18147;DHT22;9199;48.832;9.182;2023-04-25T12:39:58;9.10;99.90
18147;DHT22;9199;48.832;9.182;2023-04-25T12:42:25;9.50;99.90
18147;DHT22;9199;48.832;9.182;2023-04-25T12:44:52;10.20;99.90
18147;DHT22;9199;48.832;9.182;2023-04-25T12:47:18;10.90;99.90
18147;DHT22;9199;48.832;9.182;2023-04-25T12:49:45;11.90;99.90
18147;DHT22;9199;48.832;9.182;2023-04-25T12:52:13;12.40;99.90
18147;DHT22;9199;48.832;9.182;2023-04-25T12:54:40;12.60;99.90
18147;DHT22;9199;48.832;9.182;2023-04-25T12:57:06;12.50;99.90
18147;DHT22;9199;48.832;9.182;2023-04-25T12:59:33;12.40;99.90
18147;DHT22;9199;48.832;9.182;2023-04-25T13:02:00;12.40;99.90
18147;DHT22;9199;48.832;9.182;2023-04-25T13:04:27;12.20;99.90
18147;DHT22;9199;48.832;9.182;2023-04-25T13:06:53;12.20;99.90
18147;DHT22;9199;48.832;9.182;2023-04-25T13:09:21;12.20;99.90
18147;DHT22;9199;48.832;9.182;2023-04-25T13:11:48;11.90;99.90
18147;DHT22;9199;48.832;9.182;2023-04-25T13:14:15;11.80;99.90
18147;DHT22;9199;48.832;9.182;2023-04-25T13:16:42;11.60;99.90
18147;DHT22;9199;48.832;9.182;2023-04-25T13:19:08;11.50;99.90
18147;DHT22;9199;48.832;9.182;2023-04-25T13:21:36;12.10;99.90
18147;DHT22;9199;48.832;9.182;2023-04-25T13:24:04;13.10;99.90
18147;DHT22;9199;48.832;9.182;2023-04-25T13:26:32;13.30;99.90
18147;DHT22;9199;48.832;9.182;2023-04-25T13:28:58;12.90;99.90
18147;DHT22;9199;48.832;9.182;2023-04-25T13:31:28;12.70;99.90
18147;DHT22;9199;48.832;9.182;2023-04-25T13:33:55;12.30;99.90
18147;DHT22;9199;48.832;9.182;2023-04-25T13:36:22;11.80;99.90
18147;DHT22;9199;48.832;9.182;2023-04-25T13:38:48;11.70;99.90
18147;DHT22;9199;48.832;9.182;2023-04-25T13:41:15;11.60;99.90
18147;DHT22;9199;48.832;9.182;2023-04-25T13:43:45;11.50;99.90
18147;DHT22;9199;48.832;9.182;2023-04-25T13:46:13;11.40;99.90
18147;DHT22;9199;48.832;9.182;2023-04-25T13:48:41;11.40;99.90
18147;DHT22;9199;48.832;9.182;2023-04-25T13:51:13;11.60;99.90
18147;DHT22;9199;48.832;9.182;2023-04-25T13:53:39;11.90;99.90
18147;DHT22;9199;48.832;9.182;2023-04-25T13:56:06;11.90;99.90
18147;DHT22;9199;48.832;9.182;2023-04-25T13:58:33;12.40;99.90
18147;DHT22;9199;48.832;9.182;2023-04-25T14:01:01;12.60;99.90
18147;DHT22;9199;48.832;9.182;2023-04-25T14:03:28;12.70;99.90
18147;DHT22;9199;48.832;9.182;2023-04-25T14:05:55;13.00;99.90
18147;DHT22;9199;48.832;9.182;2023-04-25T14:08:22;13.30;99.90
18147;DHT22;9199;48.832;9.182;2023-04-25T14:10:48;13.40;99.90
18147;DHT22;9199;48.832;9.182;2023-04-25T14:13:15;13.50;99.90
18147;DHT22;9199;48.832;9.182;2023-04-25T14:15:42;13.80;99.90
18147;DHT22;9199;48.832;9.182;2023-04-25T14:18:10;14.60;99.90
18147;DHT22;9199;48.832;9.182;2023-04-25T14:20:37;16.40;99.90
18147;DHT22;9199;48.832;9.182;2023-04-25T14:23:04;18.20;99.00
18147;DHT22;9199;48.832;9.182;2023-04-25T14:25:30;19.20;95.80
18147;DHT22;9199;48.832;9.182;2023-04-25T14:27:57;19.00;94.50
18147;DHT22;9199;48.832;9.182;2023-04-25T14:30:24;17.80;93.60
18147;DHT22;9199;48.832;9.182;2023-04-25T14:32:50;16.60;96.10
18147;DHT22;9199;48.832;9.182;2023-04-25T14:35:18;15.60;96.70
18147;DHT22;9199;48.832;9.182;2023-04-25T14:37:46;14.70;98.30
18147;DHT22;9199;48.832;9.182;2023-04-25T14:40:13;14.70;99.90
18147;DHT22;9199;48.832;9.182;2023-04-25T14:42:41;14.90;99.90
18147;DHT22;9199;48.832;9.182;2023-04-25T14:45:08;15.10;99.70
18147;DHT22;9199;48.832;9.182;2023-04-25T14:47:36;14.90;99.00
18147;DHT22;9199;48.832;9.182;2023-04-25T14:50:03;14.70;99.90
18147;DHT22;9199;48.832;9.182;2023-04-25T14:52:33;14.50;99.90
18147;DHT22;9199;48.832;9.182;2023-04-25T14:54:59;14.00;99.90
18147;DHT22;9199;48.832;9.182;2023-04-25T14:57:30;14.10;99.90
18147;DHT22;9199;48.832;9.182;2023-04-25T14:59:56;15.50;99.90
18147;DHT22;9199;48.832;9.182;2023-04-25T15:02:23;17.20;97.80
18147;DHT22;9199;48.832;9.182;2023-04-25T15:04:51;18.30;93.20
18147;DHT22;9199;48.832;9.182;2023-04-25T15:07:18;17.50;93.20
18147;DHT22;9199;48.832;9.182;2023-04-25T15:09:47;16.50;95.20
18147;DHT22;9199;48.832;9.182;2023-04-25T15:12:14;15.60;95.80
18147;DHT22;9199;48.832;9.182;2023-04-25T15:14:41;15.50;97.10
18147;DHT22;9199;48.832;9.182;2023-04-25T15:17:07;16.70;95.90
18147;DHT22;9199;48.832;9.182;2023-04-25T15:19:34;17.00;94.70
18147;DHT22;9199;48.832;9.182;2023-04-25T15:22:01;16.40;95.50
18147;DHT22;9199;48.832;9.182;2023-04-25T15:24:29;16.10;95.60
18147;DHT22;9199;48.832;9.182;2023-04-25T15:26:57;16.30;95.30
18147;DHT22;9199;48.832;9.182;2023-04-25T15:29:24;16.00;94.00
18147;DHT22;9199;48.832;9.182;2023-04-25T15:31:51;15.20;96.30
18147;DHT22;9199;48.832;9.182;2023-04-25T15:34:18;14.60;97.50
18147;DHT22;9199;48.832;9.182;2023-04-25T15:36:44;14.30;97.70
18147;DHT22;9199;48.832;9.182;2023-04-25T15:39:11;14.20;98.00
18147;DHT22;9199;48.832;9.182;2023-04-25T15:41:38;13.90;98.00
18147;DHT22;9199;48.832;9.182;2023-04-25T15:44:06;13.90;98.60
18147;DHT22;9199;48.832;9.182;2023-04-25T15:46:35;14.10;98.30
18147;DHT22;9199;48.832;9.182;2023-04-25T15:49:01;14.10;98.80
18147;DHT22;9199;48.832;9.182;2023-04-25T15:51:28;14.00;98.50
18147;DHT22;9199;48.832;9.182;2023-04-25T15:53:56;13.70;98.70
18147;DHT22;9199;48.832;9.182;2023-04-25T15:56:22;13.50;99.90
18147;DHT22;9199;48.832;9.182;2023-04-25T15:58:49;13.40;98.80